sensor_id;sensor_type;location;lat;lon;timestamp;pressure;altitude;pressure_sealevel;temperature;humidity
6680;BME280;3376;42.664;23.346;2023-08-30T00:01:03;93663.16;;;22.31;100.00
6680;BME280;3376;42.664;23.346;2023-08-30T00:03:30;93651.81;;;22.25;100.00
6680;BME280;3376;42.664;23.346;2023-08-30T00:06:03;93664.75;;;22.37;100.00
6680;BME280;3376;42.664;23.346;2023-08-30T00:08:30;93651.81;;;22.25;100.00
6680;BME280;3376;42.664;23.346;2023-08-30T00:10:57;93660.22;;;22.42;100.00
6680;BME280;3376;42.664;23.346;2023-08-30T00:13:24;93667.88;;;22.34;100.00
6680;BME280;3376;42.664;23.346;2023-08-30T00:15:51;93662.09;;;22.27;100.00
6680;BME280;3376;42.664;23.346;2023-08-30T00:18:17;93663.72;;;22.23;100.00
6680;BME280;3376;42.664;23.346;2023-08-30T00:20:44;93665.03;;;22.20;100.00
6680;BME280;3376;42.664;23.346;2023-08-30T00:23:12;93655.31;;;22.05;100.00
6680;BME280;3376;42.664;23.346;2023-08-30T00:25:39;93659.50;;;22.11;100.00
6680;BME280;3376;42.664;23.346;2023-08-30T00:28:06;93653.69;;;22.09;100.00
6680;BME280;3376;42.664;23.346;2023-08-30T00:30:33;93663.75;;;22.07;100.00
6680;BME280;3376;42.664;23.346;2023-08-30T00:33:00;93656.09;;;22.01;100.00
6680;BME280;3376;42.664;23.346;2023-08-30T00:35:26;93646.31;;;22.06;100.00
6680;BME280;3376;42.664;23.346;2023-08-30T00:37:53;93649.75;;;22.12;100.00
6680;BME280;3376;42.664;23.346;2023-08-30T00:40:24;93650.03;;;22.00;98.99
6680;BME280;3376;42.664;23.346;2023-08-30T00:42:51;93645.56;;;21.91;99.12
6680;BME280;3376;42.664;23.346;2023-08-30T00:45:18;93670.63;;;21.93;99.92
6680;BME280;3376;42.664;23.346;2023-08-30T00:47:45;93675.09;;;21.93;100.00
6680;BME280;3376;42.664;23.346;2023-08-30T00:50:12;93675.91;;;21.93;100.00
6680;BME280;3376;42.664;23.346;2023-08-30T00:52:40;93673.25;;;21.98;98.06
6680;BME280;3376;42.664;23.346;2023-08-30T00:55:07;93662.97;;;22.02;99.45
6680;BME280;3376;42.664;23.346;2023-08-30T00:57:36;93658.97;;;22.09;95.21
6680;BME280;3376;42.664;23.346;2023-08-30T01:00:05;93645.53;;;22.06;97.41
6680;BME280;3376;42.664;23.346;2023-08-30T01:02:33;93654.25;;;21.96;98.04
6680;BME280;3376;42.664;23.346;2023-08-30T01:04:59;93663.75;;;21.92;99.06
6680;BME280;3376;42.664;23.346;2023-08-30T01:07:26;93679.06;;;21.85;97.58
6680;BME280;3376;42.664;23.346;2023-08-30T01:09:54;93690.13;;;21.82;97.39
6680;BME280;3376;42.664;23.346;2023-08-30T01:12:24;93692.00;;;21.82;98.47
6680;BME280;3376;42.664;23.346;2023-08-30T01:15:00;93695.41;;;21.92;98.53
6680;BME280;3376;42.664;23.346;2023-08-30T01:17:31;93696.19;;;21.93;99.36
6680;BME280;3376;42.664;23.346;2023-08-30T01:20:01;93700.94;;;21.91;99.90
6680;BME280;3376;42.664;23.346;2023-08-30T01:22:39;93674.28;;;21.67;100.00
6680;BME280;3376;42.664;23.346;2023-08-30T01:25:17;93708.84;;;21.86;100.00
6680;BME280;3376;42.664;23.346;2023-08-30T01:27:49;93697.22;;;21.77;98.92
6680;BME280;3376;42.664;23.346;2023-08-30T01:30:17;93693.00;;;21.71;97.08
6680;BME280;3376;42.664;23.346;2023-08-30T01:32:46;93689.56;;;21.65;97.92
6680;BME280;3376;42.664;23.346;2023-08-30T01:35:13;93695.38;;;21.72;99.03
6680;BME280;3376;42.664;23.346;2023-08-30T01:37:43;93661.09;;;21.62;98.85
6680;BME280;3376;42.664;23.346;2023-08-30T01:40:11;93683.81;;;21.78;99.54
6680;BME280;3376;42.664;23.346;2023-08-30T01:42:40;93688.56;;;21.86;98.39
6680;BME280;3376;42.664;23.346;2023-08-30T01:45:11;93701.72;;;21.76;97.91
6680;BME280;3376;42.664;23.346;2023-08-30T01:47:41;93693.81;;;21.76;96.81
6680;BME280;3376;42.664;23.346;2023-08-30T01:50:09;93697.22;;;21.77;98.36
6680;BME280;3376;42.664;23.346;2023-08-30T01:52:37;93678.28;;;21.80;99.14
6680;BME280;3376;42.664;23.346;2023-08-30T01:55:06;93685.66;;;21.78;99.05
6680;BME280;3376;42.664;23.346;2023-08-30T01:57:34;93688.28;;;21.78;99.72
6680;BME280;3376;42.664;23.346;2023-08-30T02:00:01;93685.09;;;21.76;100.00
6680;BME280;3376;42.664;23.346;2023-08-30T02:02:30;93686.41;;;21.68;100.00
6680;BME280;3376;42.664;23.346;2023-08-30T02:04:56;93686.44;;;21.73;100.00
6680;BME280;3376;42.664;23.346;2023-08-30T02:07:28;93688.53;;;21.66;99.32
6680;BME280;3376;42.664;23.346;2023-08-30T02:09:58;93678.50;;;21.58;97.76
6680;BME280;3376;42.664;23.346;2023-08-30T02:12:30;93680.34;;;21.68;99.02
6680;BME280;3376;42.664;23.346;2023-08-30T02:14:58;93661.38;;;21.51;100.00
6680;BME280;3376;42.664;23.346;2023-08-30T02:17:27;93678.25;;;21.65;100.00
6680;BME280;3376;42.664;23.346;2023-08-30T02:19:55;93675.09;;;21.68;100.00
6680;BME280;3376;42.664;23.346;2023-08-30T02:22:22;93681.41;;;21.72;100.00
6680;BME280;3376;42.664;23.346;2023-08-30T02:24:48;93672.72;;;21.76;100.00
6680;BME280;3376;42.664;23.346;2023-08-30T02:27:15;93664.00;;;21.76;100.00
6680;BME280;3376;42.664;23.346;2023-08-30T02:29:42;93664.81;;;21.81;100.00
6680;BME280;3376;42.664;23.346;2023-08-30T02:32:09;93670.34;;;21.75;100.00
6680;BME280;3376;42.664;23.346;2023-08-30T02:34:35;93672.19;;;21.84;99.93
6680;BME280;3376;42.664;23.346;2023-08-30T02:37:04;93657.13;;;21.55;100.00
6680;BME280;3376;42.664;23.346;2023-08-30T02:39:31;93667.94;;;21.53;100.00
6680;BME280;3376;42.664;23.346;2023-08-30T02:41:57;93686.13;;;21.50;100.00
6680;BME280;3376;42.664;23.346;2023-08-30T02:44:24;93682.19;;;21.47;100.00
6680;BME280;3376;42.664;23.346;2023-08-30T02:46:51;93673.75;;;21.45;100.00
6680;BME280;3376;42.664;23.346;2023-08-30T02:49:17;93675.59;;;21.45;100.00
6680;BME280;3376;42.664;23.346;2023-08-30T02:51:44;93657.94;;;21.45;100.00
6680;BME280;3376;42.664;23.346;2023-08-30T02:54:12;93661.38;;;21.46;100.00
6680;BME280;3376;42.664;23.346;2023-08-30T02:56:40;93667.41;;;21.41;100.00
6680;BME280;3376;42.664;23.346;2023-08-30T02:59:07;93661.34;;;21.26;100.00
6680;BME280;3376;42.664;23.346;2023-08-30T03:01:34;93645.78;;;21.19;100.00
6680;BME280;3376;42.664;23.346;2023-08-30T03:04:01;93660.03;;;21.28;100.00
6680;BME280;3376;42.664;23.346;2023-08-30T03:06:28;93660.84;;;21.34;100.00
6680;BME280;3376;42.664;23.346;2023-08-30T03:08:55;93664.50;;;21.43;100.00
6680;BME280;3376;42.664;23.346;2023-08-30T03:11:23;93651.59;;;21.26;100.00
6680;BME280;3376;42.664;23.346;2023-08-30T03:13:50;93673.47;;;21.32;100.00
6680;BME280;3376;42.664;23.346;2023-08-30T03:16:17;93659.22;;;21.23;99.44
6680;BME280;3376;42.664;23.346;2023-08-30T03:18:44;93667.13;;;21.28;100.00
6680;BME280;3376;42.664;23.346;2023-08-30T03:21:11;93664.22;;;21.29;100.00
6680;BME280;3376;42.664;23.346;2023-08-30T03:23:38;93667.38;;;21.16;100.00
6680;BME280;3376;42.664;23.346;2023-08-30T03:26:08;93656.03;;;21.00;100.00
6680;BME280;3376;42.664;23.346;2023-08-30T03:28:37;93673.41;;;21.01;100.00
6680;BME280;3376;42.664;23.346;2023-08-30T03:31:11;93668.88;;;20.87;100.00
6680;BME280;3376;42.664;23.346;2023-08-30T03:33:38;93665.94;;;20.78;100.00
6680;BME280;3376;42.664;23.346;2023-08-30T03:36:06;93661.41;;;20.64;100.00
6680;BME280;3376;42.664;23.346;2023-08-30T03:38:33;93633.97;;;20.45;100.00
6680;BME280;3376;42.664;23.346;2023-08-30T03:41:00;93644.53;;;20.50;100.00
6680;BME280;3376;42.664;23.346;2023-08-30T03:43:27;93651.13;;;20.62;100.00
6680;BME280;3376;42.664;23.346;2023-08-30T03:45:55;93649.84;;;20.70;100.00
6680;BME280;3376;42.664;23.346;2023-08-30T03:48:22;93653.03;;;20.72;100.00
6680;BME280;3376;42.664;23.346;2023-08-30T03:50:49;93647.00;;;20.81;100.00
6680;BME280;3376;42.664;23.346;2023-08-30T03:53:16;93643.31;;;20.82;100.00
6680;BME280;3376;42.664;23.346;2023-08-30T03:55:42;93655.19;;;20.95;100.00
6680;BME280;3376;42.664;23.346;2023-08-30T03:58:09;93657.88;;;21.00;100.00
6680;BME280;3376;42.664;23.346;2023-08-30T04:00:36;93660.97;;;20.92;100.00
6680;BME280;3376;42.664;23.346;2023-08-30T04:03:08;93675.22;;;20.91;100.00
6680;BME280;3376;42.664;23.346;2023-08-30T04:05:36;93680.50;;;20.96;100.00
6680;BME280;3376;42.664;23.346;2023-08-30T04:08:03;93660.97;;;20.92;100.00
6680;BME280;3376;42.664;23.346;2023-08-30T04:10:34;93671.03;;;21.10;100.00
6680;BME280;3376;42.664;23.346;2023-08-30T04:13:01;93668.97;;;21.27;100.00
6680;BME280;3376;42.664;23.346;2023-08-30T04:15:28;93657.13;;;21.25;100.00
6680;BME280;3376;42.664;23.346;2023-08-30T04:17:55;93670.31;;;21.40;100.00
6680;BME280;3376;42.664;23.346;2023-08-30T04:20:23;93686.94;;;21.50;100.00
6680;BME280;3376;42.664;23.346;2023-08-30T04:22:50;93699.84;;;21.57;100.00
6680;BME280;3376;42.664;23.346;2023-08-30T04:25:18;93693.53;;;21.68;100.00
6680;BME280;3376;42.664;23.346;2023-08-30T04:27:45;93698.53;;;21.74;100.00
6680;BME280;3376;42.664;23.346;2023-08-30T04:30:13;93605.72;;;21.12;100.00
6680;BME280;3376;42.664;23.346;2023-08-30T04:32:40;93716.50;;;21.82;100.00
6680;BME280;3376;42.664;23.346;2023-08-30T04:35:07;93716.25;;;21.94;100.00
6680;BME280;3376;42.664;23.346;2023-08-30T04:37:36;93722.03;;;22.01;100.00
6680;BME280;3376;42.664;23.346;2023-08-30T04:40:05;93731.00;;;22.10;100.00
6680;BME280;3376;42.664;23.346;2023-08-30T04:42:33;93735.47;;;22.30;100.00
6680;BME280;3376;42.664;23.346;2023-08-30T04:45:00;93750.75;;;22.48;100.00
6680;BME280;3376;42.664;23.346;2023-08-30T04:47:28;93752.09;;;22.45;100.00
6680;BME280;3376;42.664;23.346;2023-08-30T04:49:55;93749.16;;;22.52;100.00
6680;BME280;3376;42.664;23.346;2023-08-30T04:52:21;93747.31;;;22.47;100.00
6680;BME280;3376;42.664;23.346;2023-08-30T04:54:50;93737.00;;;22.51;100.00
6680;BME280;3376;42.664;23.346;2023-08-30T04:57:17;93741.78;;;22.44;99.91
6680;BME280;3376;42.664;23.346;2023-08-30T04:59:44;93744.94;;;22.46;100.00
6680;BME280;3376;42.664;23.346;2023-08-30T05:02:11;93731.22;;;22.39;99.45
6680;BME280;3376;42.664;23.346;2023-08-30T05:04:38;93728.88;;;22.27;97.67
6680;BME280;3376;42.664;23.346;2023-08-30T05:07:05;93733.13;;;22.23;97.60
6680;BME280;3376;42.664;23.346;2023-08-30T05:09:32;93745.53;;;22.17;97.26
6680;BME280;3376;42.664;23.346;2023-08-30T05:12:01;93729.69;;;22.07;98.37
6680;BME280;3376;42.664;23.346;2023-08-30T05:14:28;93750.00;;;22.17;99.16
6680;BME280;3376;42.664;23.346;2023-08-30T05:16:55;93742.34;;;22.21;95.45
6680;BME280;3376;42.664;23.346;2023-08-30T05:19:22;93732.59;;;22.26;92.11
6680;BME280;3376;42.664;23.346;2023-08-30T05:21:49;93737.31;;;22.29;93.45
6680;BME280;3376;42.664;23.346;2023-08-30T05:24:17;93720.16;;;22.22;95.69
6680;BME280;3376;42.664;23.346;2023-08-30T05:26:43;93735.22;;;22.31;95.98
6680;BME280;3376;42.664;23.346;2023-08-30T05:29:13;93747.06;;;22.49;94.30
6680;BME280;3376;42.664;23.346;2023-08-30T05:31:40;93748.38;;;22.46;94.38
6680;BME280;3376;42.664;23.346;2023-08-30T05:34:07;93762.91;;;22.59;94.84
6680;BME280;3376;42.664;23.346;2023-08-30T05:36:34;93759.69;;;22.77;93.72
6680;BME280;3376;42.664;23.346;2023-08-30T05:39:01;93763.88;;;22.93;91.27
6680;BME280;3376;42.664;23.346;2023-08-30T05:41:28;93747.94;;;23.13;88.68
6680;BME280;3376;42.664;23.346;2023-08-30T05:43:55;93735.19;;;23.25;84.61
6680;BME280;3376;42.664;23.346;2023-08-30T05:46:24;93757.00;;;23.56;81.52
6680;BME280;3376;42.664;23.346;2023-08-30T05:48:50;93756.09;;;23.75;74.88
6680;BME280;3376;42.664;23.346;2023-08-30T05:51:17;93760.28;;;23.81;75.44
6680;BME280;3376;42.664;23.346;2023-08-30T05:53:45;93760.06;;;23.73;73.93
6680;BME280;3376;42.664;23.346;2023-08-30T05:56:12;93757.56;;;23.91;74.65
6680;BME280;3376;42.664;23.346;2023-08-30T05:58:39;93752.19;;;24.06;73.24
6680;BME280;3376;42.664;23.346;2023-08-30T06:01:06;93748.53;;;24.31;69.97
6680;BME280;3376;42.664;23.346;2023-08-30T06:03:34;93759.09;;;24.65;67.95
6680;BME280;3376;42.664;23.346;2023-08-30T06:06:01;93757.22;;;24.65;70.40
6680;BME280;3376;42.664;23.346;2023-08-30T06:08:28;93757.13;;;24.75;67.79
6680;BME280;3376;42.664;23.346;2023-08-30T06:10:55;93754.06;;;24.92;67.54
6680;BME280;3376;42.664;23.346;2023-08-30T06:13:22;93739.25;;;24.86;66.14
6680;BME280;3376;42.664;23.346;2023-08-30T06:15:50;93747.09;;;24.96;67.33
6680;BME280;3376;42.664;23.346;2023-08-30T06:18:17;93755.50;;;25.03;67.13
6680;BME280;3376;42.664;23.346;2023-08-30T06:20:45;93762.97;;;25.01;65.32
6680;BME280;3376;42.664;23.346;2023-08-30T06:23:13;93757.19;;;25.17;67.96
6680;BME280;3376;42.664;23.346;2023-08-30T06:25:40;93756.09;;;25.42;63.74
6680;BME280;3376;42.664;23.346;2023-08-30T06:28:07;93741.94;;;25.51;63.60
6680;BME280;3376;42.664;23.346;2023-08-30T06:30:33;93754.19;;;25.66;61.90
6680;BME280;3376;42.664;23.346;2023-08-30T06:33:00;93765.22;;;25.73;59.82
6680;BME280;3376;42.664;23.346;2023-08-30T06:35:27;93769.47;;;25.93;61.25
6680;BME280;3376;42.664;23.346;2023-08-30T06:37:55;93767.41;;;26.08;59.23
6680;BME280;3376;42.664;23.346;2023-08-30T06:40:22;93770.19;;;26.17;58.84
6680;BME280;3376;42.664;23.346;2023-08-30T06:42:49;93770.91;;;26.22;58.23
6680;BME280;3376;42.664;23.346;2023-08-30T06:45:16;93765.97;;;26.48;57.94
6680;BME280;3376;42.664;23.346;2023-08-30T06:47:42;93773.06;;;26.52;57.51
6680;BME280;3376;42.664;23.346;2023-08-30T06:50:09;93773.69;;;26.63;55.84
6680;BME280;3376;42.664;23.346;2023-08-30T06:52:36;93775.88;;;26.75;55.07
6680;BME280;3376;42.664;23.346;2023-08-30T06:55:05;93758.75;;;26.67;55.66
6680;BME280;3376;42.664;23.346;2023-08-30T06:57:32;93760.25;;;26.87;54.74
6680;BME280;3376;42.664;23.346;2023-08-30T06:59:59;93762.50;;;27.07;53.35
6680;BME280;3376;42.664;23.346;2023-08-30T07:02:33;93759.84;;;27.07;52.42
6680;BME280;3376;42.664;23.346;2023-08-30T07:04:59;93764.31;;;26.84;51.75
6680;BME280;3376;42.664;23.346;2023-08-30T07:07:26;93763.03;;;26.49;54.79
6680;BME280;3376;42.664;23.346;2023-08-30T07:09:53;93761.94;;;26.50;54.58
6680;BME280;3376;42.664;23.346;2023-08-30T07:12:21;93757.78;;;26.77;55.50
6680;BME280;3376;42.664;23.346;2023-08-30T07:14:48;93764.31;;;26.98;54.97
6680;BME280;3376;42.664;23.346;2023-08-30T07:17:15;93752.88;;;27.11;53.43
6680;BME280;3376;42.664;23.346;2023-08-30T07:19:42;93761.94;;;27.50;51.99
6680;BME280;3376;42.664;23.346;2023-08-30T07:22:09;93752.41;;;27.85;50.71
6680;BME280;3376;42.664;23.346;2023-08-30T07:24:35;93765.81;;;27.94;50.66
6680;BME280;3376;42.664;23.346;2023-08-30T07:27:02;93767.75;;;28.02;48.91
6680;BME280;3376;42.664;23.346;2023-08-30T07:29:31;93764.66;;;28.08;49.22
6680;BME280;3376;42.664;23.346;2023-08-30T07:31:57;93770.50;;;28.32;49.93
6680;BME280;3376;42.664;23.346;2023-08-30T07:34:24;93772.47;;;28.62;48.11
6680;BME280;3376;42.664;23.346;2023-08-30T07:36:54;93773.66;;;28.87;47.66
6680;BME280;3376;42.664;23.346;2023-08-30T07:39:21;93775.56;;;28.86;47.00
6680;BME280;3376;42.664;23.346;2023-08-30T07:41:47;93776.59;;;29.08;46.07
6680;BME280;3376;42.664;23.346;2023-08-30T07:44:14;93763.66;;;28.92;45.25
6680;BME280;3376;42.664;23.346;2023-08-30T07:46:42;93764.28;;;28.89;46.50
6680;BME280;3376;42.664;23.346;2023-08-30T07:49:09;93756.38;;;28.76;45.83
6680;BME280;3376;42.664;23.346;2023-08-30T07:51:36;93757.22;;;28.93;46.59
6680;BME280;3376;42.664;23.346;2023-08-30T07:54:03;93762.91;;;29.01;46.03
6680;BME280;3376;42.664;23.346;2023-08-30T07:56:30;93767.09;;;29.15;45.74
6680;BME280;3376;42.664;23.346;2023-08-30T07:58:57;93766.03;;;29.33;45.23
6680;BME280;3376;42.664;23.346;2023-08-30T08:01:23;93769.25;;;29.61;43.72
6680;BME280;3376;42.664;23.346;2023-08-30T08:03:51;93776.06;;;29.67;43.18
6680;BME280;3376;42.664;23.346;2023-08-30T08:06:18;93776.72;;;29.42;42.82
6680;BME280;3376;42.664;23.346;2023-08-30T08:08:45;93755.84;;;29.44;43.25
6680;BME280;3376;42.664;23.346;2023-08-30T08:11:12;93766.78;;;29.73;43.60
6680;BME280;3376;42.664;23.346;2023-08-30T08:13:39;93773.75;;;30.17;42.73
6680;BME280;3376;42.664;23.346;2023-08-30T08:16:05;93773.91;;;30.03;44.52
6680;BME280;3376;42.664;23.346;2023-08-30T08:18:32;93756.91;;;29.90;44.16
6680;BME280;3376;42.664;23.346;2023-08-30T08:21:00;93779.53;;;30.19;43.10
6680;BME280;3376;42.664;23.346;2023-08-30T08:23:27;93777.97;;;30.52;42.78
6680;BME280;3376;42.664;23.346;2023-08-30T08:25:57;93772.63;;;30.60;42.92
6680;BME280;3376;42.664;23.346;2023-08-30T08:28:24;93773.25;;;30.66;42.17
6680;BME280;3376;42.664;23.346;2023-08-30T08:30:51;93769.63;;;30.62;41.42
6680;BME280;3376;42.664;23.346;2023-08-30T08:33:17;93778.56;;;30.74;41.99
6680;BME280;3376;42.664;23.346;2023-08-30T08:35:45;93764.59;;;30.60;41.71
6680;BME280;3376;42.664;23.346;2023-08-30T08:38:13;93777.31;;;30.63;41.00
6680;BME280;3376;42.664;23.346;2023-08-30T08:40:40;93792.63;;;30.46;39.16
6680;BME280;3376;42.664;23.346;2023-08-30T08:43:10;93769.47;;;30.58;39.54
6680;BME280;3376;42.664;23.346;2023-08-30T08:45:37;93782.25;;;30.36;42.33
6680;BME280;3376;42.664;23.346;2023-08-30T08:48:05;93786.81;;;30.35;39.68
6680;BME280;3376;42.664;23.346;2023-08-30T08:50:32;93787.44;;;30.41;39.81
6680;BME280;3376;42.664;23.346;2023-08-30T08:52:59;93785.69;;;30.28;39.97
6680;BME280;3376;42.664;23.346;2023-08-30T08:55:29;93778.28;;;30.50;40.48
6680;BME280;3376;42.664;23.346;2023-08-30T08:57:57;93749.31;;;30.69;39.73
6680;BME280;3376;42.664;23.346;2023-08-30T09:00:24;93772.97;;;31.13;39.62
6680;BME280;3376;42.664;23.346;2023-08-30T09:02:51;93775.63;;;31.13;39.18
6680;BME280;3376;42.664;23.346;2023-08-30T09:05:20;93774.94;;;31.34;39.73
6680;BME280;3376;42.664;23.346;2023-08-30T09:07:46;93779.22;;;31.64;39.12
6680;BME280;3376;42.664;23.346;2023-08-30T09:10:13;93781.81;;;31.52;38.24
6680;BME280;3376;42.664;23.346;2023-08-30T09:12:41;93775.31;;;31.53;38.54
6680;BME280;3376;42.664;23.346;2023-08-30T09:15:08;93772.63;;;31.15;39.12
6680;BME280;3376;42.664;23.346;2023-08-30T09:17:35;93773.44;;;31.16;39.65
6680;BME280;3376;42.664;23.346;2023-08-30T09:20:09;93766.63;;;30.80;40.38
6680;BME280;3376;42.664;23.346;2023-08-30T09:22:38;93760.00;;;30.69;40.30
6680;BME280;3376;42.664;23.346;2023-08-30T09:25:06;93759.91;;;30.49;40.51
6680;BME280;3376;42.664;23.346;2023-08-30T09:27:33;93770.28;;;30.33;41.15
6680;BME280;3376;42.664;23.346;2023-08-30T09:30:03;93767.28;;;30.43;41.29
6680;BME280;3376;42.664;23.346;2023-08-30T09:32:30;93766.44;;;30.68;40.61
6680;BME280;3376;42.664;23.346;2023-08-30T09:34:57;93761.56;;;30.87;40.47
6680;BME280;3376;42.664;23.346;2023-08-30T09:37:24;93778.50;;;31.08;39.36
6680;BME280;3376;42.664;23.346;2023-08-30T09:39:52;93764.72;;;31.36;38.68
6680;BME280;3376;42.664;23.346;2023-08-30T09:42:18;93758.59;;;31.64;38.42
6680;BME280;3376;42.664;23.346;2023-08-30T09:44:45;93774.34;;;31.86;37.68
6680;BME280;3376;42.664;23.346;2023-08-30T09:47:14;93752.19;;;31.77;37.55
6680;BME280;3376;42.664;23.346;2023-08-30T09:49:43;93757.41;;;31.74;38.50
6680;BME280;3376;42.664;23.346;2023-08-30T09:52:12;93763.69;;;31.78;38.51
6680;BME280;3376;42.664;23.346;2023-08-30T09:54:41;93756.34;;;31.66;38.51
6680;BME280;3376;42.664;23.346;2023-08-30T09:57:09;93740.00;;;31.80;38.54
6680;BME280;3376;42.664;23.346;2023-08-30T09:59:37;93733.69;;;31.35;38.41
6680;BME280;3376;42.664;23.346;2023-08-30T10:02:05;93748.53;;;31.53;38.04
6680;BME280;3376;42.664;23.346;2023-08-30T10:04:35;93747.72;;;31.61;38.14
6680;BME280;3376;42.664;23.346;2023-08-30T10:07:03;93738.69;;;31.45;38.62
6680;BME280;3376;42.664;23.346;2023-08-30T10:09:31;93729.06;;;31.15;38.94
6680;BME280;3376;42.664;23.346;2023-08-30T10:11:59;93731.63;;;31.32;38.55
6680;BME280;3376;42.664;23.346;2023-08-30T10:14:27;93737.94;;;31.27;39.29
6680;BME280;3376;42.664;23.346;2023-08-30T10:16:59;93742.47;;;31.44;39.43
6680;BME280;3376;42.664;23.346;2023-08-30T10:19:27;93710.38;;;31.35;38.61
6680;BME280;3376;42.664;23.346;2023-08-30T10:22:00;93724.97;;;31.67;38.37
6680;BME280;3376;42.664;23.346;2023-08-30T10:24:30;93725.69;;;31.55;38.32
6680;BME280;3376;42.664;23.346;2023-08-30T10:27:00;93732.72;;;31.31;39.42
6680;BME280;3376;42.664;23.346;2023-08-30T10:29:27;93725.53;;;31.23;38.98
6680;BME280;3376;42.664;23.346;2023-08-30T10:31:55;93733.91;;;31.21;39.43
6680;BME280;3376;42.664;23.346;2023-08-30T10:34:21;93737.16;;;31.27;39.97
6680;BME280;3376;42.664;23.346;2023-08-30T10:37:00;93737.09;;;31.15;39.52
6680;BME280;3376;42.664;23.346;2023-08-30T10:39:34;93732.59;;;31.27;38.83
6680;BME280;3376;42.664;23.346;2023-08-30T10:42:08;93707.78;;;31.09;38.48
6680;BME280;3376;42.664;23.346;2023-08-30T10:44:45;93695.88;;;30.52;39.87
6680;BME280;3376;42.664;23.346;2023-08-30T10:47:18;93716.56;;;30.81;40.95
6680;BME280;3376;42.664;23.346;2023-08-30T10:49:47;93724.00;;;31.13;39.98
6680;BME280;3376;42.664;23.346;2023-08-30T10:52:15;93723.38;;;31.16;39.00
6680;BME280;3376;42.664;23.346;2023-08-30T10:54:42;93706.28;;;31.00;39.04
6680;BME280;3376;42.664;23.346;2023-08-30T10:57:19;93721.63;;;31.11;38.99
6680;BME280;3376;42.664;23.346;2023-08-30T11:00:07;93706.59;;;30.98;38.65
6680;BME280;3376;42.664;23.346;2023-08-30T11:02:35;93716.38;;;31.24;38.75
6680;BME280;3376;42.664;23.346;2023-08-30T11:05:03;93714.78;;;31.31;40.29
6680;BME280;3376;42.664;23.346;2023-08-30T11:07:33;93713.59;;;31.49;38.66
6680;BME280;3376;42.664;23.346;2023-08-30T11:09:59;93710.22;;;31.61;38.27
6680;BME280;3376;42.664;23.346;2023-08-30T11:12:26;93713.00;;;31.93;37.65
6680;BME280;3376;42.664;23.346;2023-08-30T11:14:55;93714.47;;;32.44;37.28
6680;BME280;3376;42.664;23.346;2023-08-30T11:17:22;93706.91;;;32.58;36.81
6680;BME280;3376;42.664;23.346;2023-08-30T11:19:50;93704.78;;;32.64;36.30
6680;BME280;3376;42.664;23.346;2023-08-30T11:22:17;93695.88;;;32.39;36.29
6680;BME280;3376;42.664;23.346;2023-08-30T11:24:48;93704.19;;;32.46;36.17
6680;BME280;3376;42.664;23.346;2023-08-30T11:27:17;93674.19;;;32.32;36.14
6680;BME280;3376;42.664;23.346;2023-08-30T11:29:44;93496.88;;;31.24;35.60
6680;BME280;3376;42.664;23.346;2023-08-30T11:32:10;93687.31;;;32.46;35.96
6680;BME280;3376;42.664;23.346;2023-08-30T11:34:37;93689.03;;;32.62;35.49
6680;BME280;3376;42.664;23.346;2023-08-30T11:37:04;93677.53;;;32.74;35.80
6680;BME280;3376;42.664;23.346;2023-08-30T11:39:31;93680.81;;;33.03;35.52
6680;BME280;3376;42.664;23.346;2023-08-30T11:41:59;93676.00;;;33.21;34.68
6680;BME280;3376;42.664;23.346;2023-08-30T11:44:28;93678.81;;;33.12;34.41
6680;BME280;3376;42.664;23.346;2023-08-30T11:46:58;93673.22;;;32.93;35.17
6680;BME280;3376;42.664;23.346;2023-08-30T11:49:25;93668.38;;;32.75;35.38
6680;BME280;3376;42.664;23.346;2023-08-30T11:51:53;93680.13;;;32.82;34.72
6680;BME280;3376;42.664;23.346;2023-08-30T11:54:22;93667.41;;;32.91;34.59
6680;BME280;3376;42.664;23.346;2023-08-30T11:56:50;93663.13;;;32.90;34.33
6680;BME280;3376;42.664;23.346;2023-08-30T11:59:21;93654.16;;;32.86;34.53
6680;BME280;3376;42.664;23.346;2023-08-30T12:01:48;93658.75;;;32.62;34.31
6680;BME280;3376;42.664;23.346;2023-08-30T12:04:15;93664.03;;;32.82;36.75
6680;BME280;3376;42.664;23.346;2023-08-30T12:06:44;93658.53;;;32.79;34.50
6680;BME280;3376;42.664;23.346;2023-08-30T12:09:14;93657.06;;;32.69;34.65
6680;BME280;3376;42.664;23.346;2023-08-30T12:11:41;93654.59;;;32.64;35.45
6680;BME280;3376;42.664;23.346;2023-08-30T12:14:07;93648.69;;;32.38;35.64
6680;BME280;3376;42.664;23.346;2023-08-30T12:16:35;93653.69;;;32.15;36.02
6680;BME280;3376;42.664;23.346;2023-08-30T12:19:09;93629.03;;;31.89;36.65
6680;BME280;3376;42.664;23.346;2023-08-30T12:21:40;93643.56;;;32.00;35.61
6680;BME280;3376;42.664;23.346;2023-08-30T12:24:07;93652.34;;;32.21;33.64
6680;BME280;3376;42.664;23.346;2023-08-30T12:26:34;93645.97;;;32.26;34.20
6680;BME280;3376;42.664;23.346;2023-08-30T12:29:03;93642.91;;;32.36;33.55
6680;BME280;3376;42.664;23.346;2023-08-30T12:31:30;93635.59;;;32.57;33.30
6680;BME280;3376;42.664;23.346;2023-08-30T12:33:59;93629.34;;;32.53;33.16
6680;BME280;3376;42.664;23.346;2023-08-30T12:36:25;93628.22;;;32.66;32.18
6680;BME280;3376;42.664;23.346;2023-08-30T12:38:52;93640.56;;;32.91;30.74
6680;BME280;3376;42.664;23.346;2023-08-30T12:41:19;93619.97;;;33.19;30.71
6680;BME280;3376;42.664;23.346;2023-08-30T12:43:48;93628.69;;;33.28;30.25
6680;BME280;3376;42.664;23.346;2023-08-30T12:46:15;93633.16;;;33.12;30.70
6680;BME280;3376;42.664;23.346;2023-08-30T12:48:42;93623.34;;;33.16;30.74
6680;BME280;3376;42.664;23.346;2023-08-30T12:51:10;93620.75;;;33.20;30.78
6680;BME280;3376;42.664;23.346;2023-08-30T12:53:38;93615.25;;;33.28;30.39
6680;BME280;3376;42.664;23.346;2023-08-30T12:56:05;93610.22;;;33.51;31.13
6680;BME280;3376;42.664;23.346;2023-08-30T12:58:32;93610.72;;;33.57;29.13
6680;BME280;3376;42.664;23.346;2023-08-30T13:00:59;93607.41;;;33.75;28.70
6680;BME280;3376;42.664;23.346;2023-08-30T13:03:26;93579.81;;;33.63;29.57
6680;BME280;3376;42.664;23.346;2023-08-30T13:05:53;93597.94;;;33.66;28.54
6680;BME280;3376;42.664;23.346;2023-08-30T13:08:21;93608.53;;;33.47;27.78
6680;BME280;3376;42.664;23.346;2023-08-30T13:10:47;93605.50;;;32.64;28.42